Kirkby-in-Ashfield, United Kingdom
Current Conditions -  °F | °C
As of 8:50 PM on Sunday 21 Dec 2014 (Local Time) from EGNX Reporting Station
Broken Clouds Broken Clouds  
Wind Chill: 11°   Ceiling: 1900
Heat Index: 11°   Visibility: 6mi
Dew Point:   Wind: 23mph
Humidity: 88%   Direction: 210°SSW
Pressure: 30"   Gusts: NA
Location:  53.1°N, 1.26°W
Report Text: EGNX 212050Z 21020KT 9999 BKN019 11/09 Q1016
Loading
Personal Weather Stations






























Interactive Weather Map New forecast layout! Learn more

10-Day Weather Forecast

Advertisements
Track Severe Weather on mobile